sensor_id;sensor_type;location;lat;lon;timestamp;P1;durP1;ratioP1;P2;durP2;ratioP2
76566;SDS011;65428;53.194;6.132;2023-07-16T00:01:28;11.77;;;4.45;;
76566;SDS011;65428;53.194;6.132;2023-07-16T00:03:53;11.85;;;4.20;;
76566;SDS011;65428;53.194;6.132;2023-07-16T00:06:19;10.97;;;3.53;;
76566;SDS011;65428;53.194;6.132;2023-07-16T00:08:45;13.27;;;4.05;;
76566;SDS011;65428;53.194;6.132;2023-07-16T00:11:10;10.77;;;3.63;;
76566;SDS011;65428;53.194;6.132;2023-07-16T00:13:36;10.95;;;3.70;;
76566;SDS011;65428;53.194;6.132;2023-07-16T00:16:02;9.48;;;2.90;;
76566;SDS011;65428;53.194;6.132;2023-07-16T00:18:28;10.52;;;3.40;;
76566;SDS011;65428;53.194;6.132;2023-07-16T00:20:54;11.70;;;3.27;;
76566;SDS011;65428;53.194;6.132;2023-07-16T00:23:20;13.23;;;3.13;;
76566;SDS011;65428;53.194;6.132;2023-07-16T00:25:45;9.80;;;3.10;;
76566;SDS011;65428;53.194;6.132;2023-07-16T00:28:11;8.83;;;2.77;;
76566;SDS011;65428;53.194;6.132;2023-07-16T00:30:37;8.65;;;2.58;;
76566;SDS011;65428;53.194;6.132;2023-07-16T00:33:02;9.83;;;2.47;;
76566;SDS011;65428;53.194;6.132;2023-07-16T00:35:28;11.32;;;2.53;;
76566;SDS011;65428;53.194;6.132;2023-07-16T00:37:54;10.10;;;2.30;;
76566;SDS011;65428;53.194;6.132;2023-07-16T00:40:19;9.80;;;2.53;;
76566;SDS011;65428;53.194;6.132;2023-07-16T00:42:45;10.93;;;2.73;;
76566;SDS011;65428;53.194;6.132;2023-07-16T00:45:12;9.67;;;2.60;;
76566;SDS011;65428;53.194;6.132;2023-07-16T00:47:40;10.68;;;2.90;;
76566;SDS011;65428;53.194;6.132;2023-07-16T00:50:06;10.30;;;2.58;;
76566;SDS011;65428;53.194;6.132;2023-07-16T00:52:34;9.35;;;2.30;;
76566;SDS011;65428;53.194;6.132;2023-07-16T00:55:00;10.20;;;2.72;;
76566;SDS011;65428;53.194;6.132;2023-07-16T00:57:26;10.87;;;2.67;;
76566;SDS011;65428;53.194;6.132;2023-07-16T00:59:51;8.43;;;2.55;;
76566;SDS011;65428;53.194;6.132;2023-07-16T01:02:17;11.40;;;2.70;;
76566;SDS011;65428;53.194;6.132;2023-07-16T01:04:43;9.73;;;2.57;;
76566;SDS011;65428;53.194;6.132;2023-07-16T01:07:08;13.20;;;3.05;;
76566;SDS011;65428;53.194;6.132;2023-07-16T01:09:39;12.03;;;3.00;;
76566;SDS011;65428;53.194;6.132;2023-07-16T01:12:07;9.23;;;2.65;;
76566;SDS011;65428;53.194;6.132;2023-07-16T01:14:35;11.90;;;2.80;;
76566;SDS011;65428;53.194;6.132;2023-07-16T01:17:04;11.50;;;3.20;;
76566;SDS011;65428;53.194;6.132;2023-07-16T01:19:32;11.93;;;3.10;;
76566;SDS011;65428;53.194;6.132;2023-07-16T01:28:06;10.83;;;3.20;;
76566;SDS011;65428;53.194;6.132;2023-07-16T01:30:33;11.03;;;2.60;;
76566;SDS011;65428;53.194;6.132;2023-07-16T01:33:04;13.95;;;3.33;;
76566;SDS011;65428;53.194;6.132;2023-07-16T01:35:35;9.40;;;2.42;;
76566;SDS011;65428;53.194;6.132;2023-07-16T01:38:01;8.45;;;2.65;;
76566;SDS011;65428;53.194;6.132;2023-07-16T01:40:27;10.67;;;2.33;;
76566;SDS011;65428;53.194;6.132;2023-07-16T01:42:52;11.32;;;2.88;;
76566;SDS011;65428;53.194;6.132;2023-07-16T01:45:18;10.45;;;2.60;;
76566;SDS011;65428;53.194;6.132;2023-07-16T01:47:55;9.07;;;2.93;;
76566;SDS011;65428;53.194;6.132;2023-07-16T01:50:38;9.63;;;2.67;;
76566;SDS011;65428;53.194;6.132;2023-07-16T01:53:04;9.70;;;2.50;;
76566;SDS011;65428;53.194;6.132;2023-07-16T01:55:30;12.02;;;2.55;;
76566;SDS011;65428;53.194;6.132;2023-07-16T01:57:56;12.57;;;2.27;;
76566;SDS011;65428;53.194;6.132;2023-07-16T02:00:21;8.35;;;2.25;;
76566;SDS011;65428;53.194;6.132;2023-07-16T02:02:47;8.45;;;1.88;;
76566;SDS011;65428;53.194;6.132;2023-07-16T02:05:13;8.60;;;2.40;;
76566;SDS011;65428;53.194;6.132;2023-07-16T02:07:39;8.05;;;2.08;;
76566;SDS011;65428;53.194;6.132;2023-07-16T02:10:05;8.23;;;2.00;;
76566;SDS011;65428;53.194;6.132;2023-07-16T02:12:31;8.07;;;2.13;;
76566;SDS011;65428;53.194;6.132;2023-07-16T02:14:56;7.37;;;1.90;;
76566;SDS011;65428;53.194;6.132;2023-07-16T02:17:22;8.40;;;2.05;;
76566;SDS011;65428;53.194;6.132;2023-07-16T02:19:48;6.63;;;1.80;;
76566;SDS011;65428;53.194;6.132;2023-07-16T02:22:13;9.70;;;2.07;;
76566;SDS011;65428;53.194;6.132;2023-07-16T02:24:39;8.52;;;2.17;;
76566;SDS011;65428;53.194;6.132;2023-07-16T02:27:05;10.07;;;2.37;;
76566;SDS011;65428;53.194;6.132;2023-07-16T02:29:31;9.70;;;2.40;;
76566;SDS011;65428;53.194;6.132;2023-07-16T02:31:57;7.95;;;2.17;;
76566;SDS011;65428;53.194;6.132;2023-07-16T02:34:23;7.57;;;2.30;;
76566;SDS011;65428;53.194;6.132;2023-07-16T02:36:48;9.43;;;2.57;;
76566;SDS011;65428;53.194;6.132;2023-07-16T02:39:14;8.98;;;2.80;;
76566;SDS011;65428;53.194;6.132;2023-07-16T02:41:40;9.07;;;3.00;;
76566;SDS011;65428;53.194;6.132;2023-07-16T02:44:05;9.80;;;2.95;;
76566;SDS011;65428;53.194;6.132;2023-07-16T02:46:33;8.73;;;3.00;;
76566;SDS011;65428;53.194;6.132;2023-07-16T02:48:59;8.23;;;3.03;;
76566;SDS011;65428;53.194;6.132;2023-07-16T02:51:25;8.05;;;2.83;;
76566;SDS011;65428;53.194;6.132;2023-07-16T02:53:51;10.30;;;2.92;;
76566;SDS011;65428;53.194;6.132;2023-07-16T02:56:16;9.70;;;2.95;;
76566;SDS011;65428;53.194;6.132;2023-07-16T02:58:42;9.83;;;3.37;;
76566;SDS011;65428;53.194;6.132;2023-07-16T03:01:08;9.98;;;3.50;;
76566;SDS011;65428;53.194;6.132;2023-07-16T03:03:33;11.73;;;3.50;;
76566;SDS011;65428;53.194;6.132;2023-07-16T03:06:00;9.57;;;3.53;;
76566;SDS011;65428;53.194;6.132;2023-07-16T03:08:26;8.57;;;3.40;;
76566;SDS011;65428;53.194;6.132;2023-07-16T03:10:55;12.35;;;4.05;;
76566;SDS011;65428;53.194;6.132;2023-07-16T03:13:21;8.00;;;3.63;;
76566;SDS011;65428;53.194;6.132;2023-07-16T03:15:47;10.48;;;3.78;;
76566;SDS011;65428;53.194;6.132;2023-07-16T03:18:12;9.82;;;3.80;;
76566;SDS011;65428;53.194;6.132;2023-07-16T03:20:38;9.57;;;3.77;;
76566;SDS011;65428;53.194;6.132;2023-07-16T03:23:04;8.93;;;3.58;;
76566;SDS011;65428;53.194;6.132;2023-07-16T03:25:30;7.70;;;3.60;;
76566;SDS011;65428;53.194;6.132;2023-07-16T03:27:55;9.80;;;3.60;;
76566;SDS011;65428;53.194;6.132;2023-07-16T03:30:21;9.97;;;3.80;;
76566;SDS011;65428;53.194;6.132;2023-07-16T03:32:47;12.23;;;4.40;;
76566;SDS011;65428;53.194;6.132;2023-07-16T03:35:12;10.63;;;3.97;;
76566;SDS011;65428;53.194;6.132;2023-07-16T03:37:38;10.37;;;4.00;;
76566;SDS011;65428;53.194;6.132;2023-07-16T03:40:14;10.93;;;4.30;;
76566;SDS011;65428;53.194;6.132;2023-07-16T03:42:43;10.63;;;3.85;;
76566;SDS011;65428;53.194;6.132;2023-07-16T03:45:09;11.90;;;3.97;;
76566;SDS011;65428;53.194;6.132;2023-07-16T03:47:35;10.27;;;3.88;;
76566;SDS011;65428;53.194;6.132;2023-07-16T03:50:01;12.63;;;4.38;;
76566;SDS011;65428;53.194;6.132;2023-07-16T03:52:27;10.52;;;4.10;;
76566;SDS011;65428;53.194;6.132;2023-07-16T03:54:54;7.88;;;3.95;;
76566;SDS011;65428;53.194;6.132;2023-07-16T03:57:20;11.00;;;4.15;;
76566;SDS011;65428;53.194;6.132;2023-07-16T03:59:46;9.45;;;4.28;;
76566;SDS011;65428;53.194;6.132;2023-07-16T04:02:11;11.82;;;4.53;;
76566;SDS011;65428;53.194;6.132;2023-07-16T04:04:37;11.07;;;4.50;;
76566;SDS011;65428;53.194;6.132;2023-07-16T04:07:03;11.37;;;4.80;;
76566;SDS011;65428;53.194;6.132;2023-07-16T04:09:29;11.63;;;5.35;;
76566;SDS011;65428;53.194;6.132;2023-07-16T04:11:54;11.73;;;5.00;;
76566;SDS011;65428;53.194;6.132;2023-07-16T04:14:20;10.70;;;4.90;;
76566;SDS011;65428;53.194;6.132;2023-07-16T04:16:46;11.55;;;5.57;;
76566;SDS011;65428;53.194;6.132;2023-07-16T04:19:11;11.30;;;5.13;;
76566;SDS011;65428;53.194;6.132;2023-07-16T04:21:37;11.68;;;5.05;;
76566;SDS011;65428;53.194;6.132;2023-07-16T04:24:04;12.07;;;5.25;;
76566;SDS011;65428;53.194;6.132;2023-07-16T04:26:31;11.40;;;5.10;;
76566;SDS011;65428;53.194;6.132;2023-07-16T04:28:56;12.15;;;5.40;;
76566;SDS011;65428;53.194;6.132;2023-07-16T04:31:22;11.13;;;5.73;;
76566;SDS011;65428;53.194;6.132;2023-07-16T04:33:48;11.75;;;5.03;;
76566;SDS011;65428;53.194;6.132;2023-07-16T04:36:13;12.82;;;5.60;;
76566;SDS011;65428;53.194;6.132;2023-07-16T04:38:40;12.35;;;5.90;;
76566;SDS011;65428;53.194;6.132;2023-07-16T04:41:06;12.25;;;5.40;;
76566;SDS011;65428;53.194;6.132;2023-07-16T04:43:31;13.23;;;6.13;;
76566;SDS011;65428;53.194;6.132;2023-07-16T04:45:57;11.23;;;6.57;;
76566;SDS011;65428;53.194;6.132;2023-07-16T04:48:23;13.03;;;5.90;;
76566;SDS011;65428;53.194;6.132;2023-07-16T04:50:50;13.55;;;5.78;;
76566;SDS011;65428;53.194;6.132;2023-07-16T04:53:17;12.82;;;6.03;;
76566;SDS011;65428;53.194;6.132;2023-07-16T04:55:43;12.13;;;6.13;;
76566;SDS011;65428;53.194;6.132;2023-07-16T04:58:11;10.17;;;5.73;;
76566;SDS011;65428;53.194;6.132;2023-07-16T05:00:37;11.27;;;5.80;;
76566;SDS011;65428;53.194;6.132;2023-07-16T05:03:03;11.10;;;6.07;;
76566;SDS011;65428;53.194;6.132;2023-07-16T05:05:28;11.37;;;6.03;;
76566;SDS011;65428;53.194;6.132;2023-07-16T05:07:54;12.38;;;5.78;;
76566;SDS011;65428;53.194;6.132;2023-07-16T05:10:20;13.40;;;6.33;;
76566;SDS011;65428;53.194;6.132;2023-07-16T05:12:46;15.68;;;6.60;;
76566;SDS011;65428;53.194;6.132;2023-07-16T05:15:12;13.93;;;6.25;;
76566;SDS011;65428;53.194;6.132;2023-07-16T05:17:37;11.97;;;6.43;;
76566;SDS011;65428;53.194;6.132;2023-07-16T05:20:03;14.40;;;6.15;;
76566;SDS011;65428;53.194;6.132;2023-07-16T05:22:29;14.85;;;7.78;;
76566;SDS011;65428;53.194;6.132;2023-07-16T05:24:55;16.45;;;8.15;;
76566;SDS011;65428;53.194;6.132;2023-07-16T05:27:21;16.07;;;8.10;;
76566;SDS011;65428;53.194;6.132;2023-07-16T05:29:47;16.95;;;9.70;;
76566;SDS011;65428;53.194;6.132;2023-07-16T05:32:13;18.55;;;9.15;;
76566;SDS011;65428;53.194;6.132;2023-07-16T05:34:39;19.58;;;9.68;;
76566;SDS011;65428;53.194;6.132;2023-07-16T05:37:04;15.32;;;8.27;;
76566;SDS011;65428;53.194;6.132;2023-07-16T05:39:30;16.37;;;8.03;;
76566;SDS011;65428;53.194;6.132;2023-07-16T05:41:56;17.08;;;8.32;;
76566;SDS011;65428;53.194;6.132;2023-07-16T05:44:22;18.58;;;7.95;;
76566;SDS011;65428;53.194;6.132;2023-07-16T05:46:47;15.83;;;7.67;;
76566;SDS011;65428;53.194;6.132;2023-07-16T05:49:13;13.98;;;6.20;;
76566;SDS011;65428;53.194;6.132;2023-07-16T05:51:39;12.27;;;6.90;;
76566;SDS011;65428;53.194;6.132;2023-07-16T05:54:05;13.80;;;6.90;;
76566;SDS011;65428;53.194;6.132;2023-07-16T05:56:31;16.25;;;7.68;;
76566;SDS011;65428;53.194;6.132;2023-07-16T05:58:57;13.07;;;6.57;;
76566;SDS011;65428;53.194;6.132;2023-07-16T06:01:23;13.88;;;6.10;;
76566;SDS011;65428;53.194;6.132;2023-07-16T06:03:50;13.52;;;6.72;;
76566;SDS011;65428;53.194;6.132;2023-07-16T06:06:15;11.90;;;6.20;;
76566;SDS011;65428;53.194;6.132;2023-07-16T06:08:41;14.93;;;6.87;;
76566;SDS011;65428;53.194;6.132;2023-07-16T06:11:07;13.70;;;7.32;;
76566;SDS011;65428;53.194;6.132;2023-07-16T06:13:39;13.68;;;7.07;;
76566;SDS011;65428;53.194;6.132;2023-07-16T06:16:07;16.02;;;7.28;;
76566;SDS011;65428;53.194;6.132;2023-07-16T06:18:33;16.53;;;7.57;;
76566;SDS011;65428;53.194;6.132;2023-07-16T06:20:58;13.15;;;6.75;;
76566;SDS011;65428;53.194;6.132;2023-07-16T06:23:25;14.32;;;5.70;;
76566;SDS011;65428;53.194;6.132;2023-07-16T06:25:54;14.98;;;6.70;;
76566;SDS011;65428;53.194;6.132;2023-07-16T06:28:22;13.88;;;6.38;;
76566;SDS011;65428;53.194;6.132;2023-07-16T06:30:55;15.35;;;6.55;;
76566;SDS011;65428;53.194;6.132;2023-07-16T06:33:21;15.82;;;6.95;;
76566;SDS011;65428;53.194;6.132;2023-07-16T06:35:47;12.57;;;6.82;;
76566;SDS011;65428;53.194;6.132;2023-07-16T06:38:13;12.20;;;6.17;;
76566;SDS011;65428;53.194;6.132;2023-07-16T06:40:40;14.13;;;6.10;;
76566;SDS011;65428;53.194;6.132;2023-07-16T06:43:12;13.55;;;6.13;;
76566;SDS011;65428;53.194;6.132;2023-07-16T06:45:37;10.93;;;5.73;;
76566;SDS011;65428;53.194;6.132;2023-07-16T06:48:03;13.05;;;5.93;;
76566;SDS011;65428;53.194;6.132;2023-07-16T06:50:29;14.02;;;6.13;;
76566;SDS011;65428;53.194;6.132;2023-07-16T06:52:55;12.47;;;6.03;;
76566;SDS011;65428;53.194;6.132;2023-07-16T06:55:20;13.63;;;6.13;;
76566;SDS011;65428;53.194;6.132;2023-07-16T06:57:46;13.33;;;6.23;;
76566;SDS011;65428;53.194;6.132;2023-07-16T07:00:12;12.73;;;5.82;;
76566;SDS011;65428;53.194;6.132;2023-07-16T07:02:37;12.23;;;5.97;;
76566;SDS011;65428;53.194;6.132;2023-07-16T07:05:03;10.50;;;6.30;;
76566;SDS011;65428;53.194;6.132;2023-07-16T07:07:32;12.45;;;5.90;;
76566;SDS011;65428;53.194;6.132;2023-07-16T07:09:58;12.63;;;5.72;;
76566;SDS011;65428;53.194;6.132;2023-07-16T07:12:24;12.33;;;5.20;;
76566;SDS011;65428;53.194;6.132;2023-07-16T07:14:49;13.70;;;5.57;;
76566;SDS011;65428;53.194;6.132;2023-07-16T07:17:15;12.80;;;5.07;;
76566;SDS011;65428;53.194;6.132;2023-07-16T07:19:41;14.38;;;5.55;;
76566;SDS011;65428;53.194;6.132;2023-07-16T07:22:08;12.70;;;5.60;;
76566;SDS011;65428;53.194;6.132;2023-07-16T07:24:34;11.87;;;4.93;;
76566;SDS011;65428;53.194;6.132;2023-07-16T07:26:59;11.82;;;5.35;;
76566;SDS011;65428;53.194;6.132;2023-07-16T07:29:25;11.00;;;4.90;;
76566;SDS011;65428;53.194;6.132;2023-07-16T07:31:52;11.73;;;5.28;;
76566;SDS011;65428;53.194;6.132;2023-07-16T07:34:18;10.30;;;5.23;;
76566;SDS011;65428;53.194;6.132;2023-07-16T07:36:44;12.75;;;5.32;;
76566;SDS011;65428;53.194;6.132;2023-07-16T07:39:09;11.15;;;5.20;;
76566;SDS011;65428;53.194;6.132;2023-07-16T07:41:35;10.40;;;4.97;;
76566;SDS011;65428;53.194;6.132;2023-07-16T07:44:01;11.15;;;5.88;;
76566;SDS011;65428;53.194;6.132;2023-07-16T07:46:26;11.47;;;6.07;;
76566;SDS011;65428;53.194;6.132;2023-07-16T07:48:52;11.05;;;5.57;;
76566;SDS011;65428;53.194;6.132;2023-07-16T07:51:19;10.13;;;5.65;;
76566;SDS011;65428;53.194;6.132;2023-07-16T07:53:45;11.20;;;6.37;;
76566;SDS011;65428;53.194;6.132;2023-07-16T07:56:11;12.75;;;6.20;;
76566;SDS011;65428;53.194;6.132;2023-07-16T07:58:36;11.43;;;5.82;;
76566;SDS011;65428;53.194;6.132;2023-07-16T08:01:05;9.93;;;5.73;;
76566;SDS011;65428;53.194;6.132;2023-07-16T08:03:32;11.02;;;5.72;;
76566;SDS011;65428;53.194;6.132;2023-07-16T08:05:58;11.63;;;5.82;;
76566;SDS011;65428;53.194;6.132;2023-07-16T08:08:24;10.95;;;5.50;;
76566;SDS011;65428;53.194;6.132;2023-07-16T08:10:50;9.43;;;5.10;;
76566;SDS011;65428;53.194;6.132;2023-07-16T08:13:34;11.13;;;5.80;;
76566;SDS011;65428;53.194;6.132;2023-07-16T08:16:08;11.10;;;5.20;;
76566;SDS011;65428;53.194;6.132;2023-07-16T08:18:40;9.32;;;4.95;;
76566;SDS011;65428;53.194;6.132;2023-07-16T08:21:12;10.88;;;5.90;;
76566;SDS011;65428;53.194;6.132;2023-07-16T08:23:44;10.85;;;5.35;;
76566;SDS011;65428;53.194;6.132;2023-07-16T08:26:22;10.77;;;5.75;;
76566;SDS011;65428;53.194;6.132;2023-07-16T08:29:22;11.00;;;5.38;;
76566;SDS011;65428;53.194;6.132;2023-07-16T08:31:51;10.95;;;5.75;;
76566;SDS011;65428;53.194;6.132;2023-07-16T08:34:38;9.43;;;5.55;;
76566;SDS011;65428;53.194;6.132;2023-07-16T08:37:10;10.53;;;5.37;;
76566;SDS011;65428;53.194;6.132;2023-07-16T08:39:36;11.73;;;6.00;;
76566;SDS011;65428;53.194;6.132;2023-07-16T08:42:01;11.07;;;5.50;;
76566;SDS011;65428;53.194;6.132;2023-07-16T08:44:27;11.93;;;5.80;;
76566;SDS011;65428;53.194;6.132;2023-07-16T08:46:54;10.02;;;5.30;;
76566;SDS011;65428;53.194;6.132;2023-07-16T08:49:20;10.43;;;5.78;;
76566;SDS011;65428;53.194;6.132;2023-07-16T08:51:48;9.68;;;5.53;;
76566;SDS011;65428;53.194;6.132;2023-07-16T08:54:15;12.32;;;6.10;;
76566;SDS011;65428;53.194;6.132;2023-07-16T08:56:43;10.18;;;5.45;;
76566;SDS011;65428;53.194;6.132;2023-07-16T08:59:09;10.97;;;6.30;;
76566;SDS011;65428;53.194;6.132;2023-07-16T09:01:36;10.13;;;5.72;;
76566;SDS011;65428;53.194;6.132;2023-07-16T09:04:02;12.52;;;5.38;;
76566;SDS011;65428;53.194;6.132;2023-07-16T09:06:28;9.80;;;5.32;;
76566;SDS011;65428;53.194;6.132;2023-07-16T09:08:54;9.87;;;5.40;;
76566;SDS011;65428;53.194;6.132;2023-07-16T09:11:21;11.70;;;5.80;;
76566;SDS011;65428;53.194;6.132;2023-07-16T09:13:53;10.37;;;5.67;;
76566;SDS011;65428;53.194;6.132;2023-07-16T09:16:19;12.07;;;6.22;;
76566;SDS011;65428;53.194;6.132;2023-07-16T09:18:46;10.40;;;5.40;;
76566;SDS011;65428;53.194;6.132;2023-07-16T09:21:12;9.73;;;5.00;;
76566;SDS011;65428;53.194;6.132;2023-07-16T09:23:38;12.02;;;5.20;;
76566;SDS011;65428;53.194;6.132;2023-07-16T09:26:06;9.40;;;4.90;;
76566;SDS011;65428;53.194;6.132;2023-07-16T09:28:32;9.68;;;4.82;;
76566;SDS011;65428;53.194;6.132;2023-07-16T09:31:05;10.85;;;5.28;;
76566;SDS011;65428;53.194;6.132;2023-07-16T09:33:32;8.85;;;4.32;;
76566;SDS011;65428;53.194;6.132;2023-07-16T09:35:59;9.50;;;4.82;;
76566;SDS011;65428;53.194;6.132;2023-07-16T09:38:25;9.48;;;4.78;;
76566;SDS011;65428;53.194;6.132;2023-07-16T09:40:55;10.45;;;4.70;;
76566;SDS011;65428;53.194;6.132;2023-07-16T09:43:21;9.38;;;4.35;;
76566;SDS011;65428;53.194;6.132;2023-07-16T09:45:47;9.73;;;4.70;;
76566;SDS011;65428;53.194;6.132;2023-07-16T09:48:13;8.93;;;4.67;;
76566;SDS011;65428;53.194;6.132;2023-07-16T09:50:40;9.85;;;4.20;;
76566;SDS011;65428;53.194;6.132;2023-07-16T09:53:14;10.50;;;4.55;;
76566;SDS011;65428;53.194;6.132;2023-07-16T09:55:43;9.13;;;4.28;;
76566;SDS011;65428;53.194;6.132;2023-07-16T09:58:09;9.38;;;4.85;;
76566;SDS011;65428;53.194;6.132;2023-07-16T10:00:37;10.43;;;5.00;;
76566;SDS011;65428;53.194;6.132;2023-07-16T10:03:05;9.73;;;4.80;;
76566;SDS011;65428;53.194;6.132;2023-07-16T10:05:35;10.73;;;4.88;;
76566;SDS011;65428;53.194;6.132;2023-07-16T10:08:04;8.82;;;4.82;;
76566;SDS011;65428;53.194;6.132;2023-07-16T10:10:41;10.40;;;5.55;;
76566;SDS011;65428;53.194;6.132;2023-07-16T10:13:08;9.75;;;4.97;;
76566;SDS011;65428;53.194;6.132;2023-07-16T10:15:37;7.82;;;4.45;;
76566;SDS011;65428;53.194;6.132;2023-07-16T10:18:03;7.40;;;4.38;;
76566;SDS011;65428;53.194;6.132;2023-07-16T10:20:33;9.60;;;5.00;;
76566;SDS011;65428;53.194;6.132;2023-07-16T10:23:14;9.07;;;4.65;;
76566;SDS011;65428;53.194;6.132;2023-07-16T10:25:41;9.90;;;4.20;;
76566;SDS011;65428;53.194;6.132;2023-07-16T10:28:37;9.88;;;4.63;;
76566;SDS011;65428;53.194;6.132;2023-07-16T10:31:03;10.45;;;5.10;;
76566;SDS011;65428;53.194;6.132;2023-07-16T10:33:35;9.20;;;5.27;;
76566;SDS011;65428;53.194;6.132;2023-07-16T10:36:23;9.82;;;5.55;;
76566;SDS011;65428;53.194;6.132;2023-07-16T10:38:54;9.93;;;5.32;;
76566;SDS011;65428;53.194;6.132;2023-07-16T10:41:37;11.45;;;5.22;;
76566;SDS011;65428;53.194;6.132;2023-07-16T10:44:07;9.13;;;5.15;;
76566;SDS011;65428;53.194;6.132;2023-07-16T10:46:34;10.40;;;5.28;;
76566;SDS011;65428;53.194;6.132;2023-07-16T10:51:54;8.85;;;3.50;;
76566;SDS011;65428;53.194;6.132;2023-07-16T10:54:24;8.23;;;3.38;;
76566;SDS011;65428;53.194;6.132;2023-07-16T11:00:01;9.13;;;3.20;;
76566;SDS011;65428;53.194;6.132;2023-07-16T11:02:28;8.13;;;3.15;;
76566;SDS011;65428;53.194;6.132;2023-07-16T11:04:57;8.27;;;2.95;;
76566;SDS011;65428;53.194;6.132;2023-07-16T11:07:30;9.63;;;4.00;;
76566;SDS011;65428;53.194;6.132;2023-07-16T11:09:56;10.55;;;4.47;;
76566;SDS011;65428;53.194;6.132;2023-07-16T11:12:28;9.23;;;4.28;;
76566;SDS011;65428;53.194;6.132;2023-07-16T11:14:55;8.18;;;3.97;;
76566;SDS011;65428;53.194;6.132;2023-07-16T11:17:22;7.88;;;3.58;;
76566;SDS011;65428;53.194;6.132;2023-07-16T11:19:50;8.48;;;3.40;;
76566;SDS011;65428;53.194;6.132;2023-07-16T11:22:19;7.88;;;3.40;;
76566;SDS011;65428;53.194;6.132;2023-07-16T11:24:50;8.43;;;3.63;;
76566;SDS011;65428;53.194;6.132;2023-07-16T11:27:30;6.70;;;3.80;;
76566;SDS011;65428;53.194;6.132;2023-07-16T11:29:57;7.28;;;3.60;;
76566;SDS011;65428;53.194;6.132;2023-07-16T11:32:28;7.75;;;3.58;;
76566;SDS011;65428;53.194;6.132;2023-07-16T11:35:12;9.23;;;3.20;;
76566;SDS011;65428;53.194;6.132;2023-07-16T11:37:44;8.20;;;2.33;;
76566;SDS011;65428;53.194;6.132;2023-07-16T11:40:18;7.67;;;2.30;;
76566;SDS011;65428;53.194;6.132;2023-07-16T11:42:55;11.23;;;2.90;;
76566;SDS011;65428;53.194;6.132;2023-07-16T11:45:22;7.97;;;2.10;;
76566;SDS011;65428;53.194;6.132;2023-07-16T11:48:14;9.03;;;2.60;;
76566;SDS011;65428;53.194;6.132;2023-07-16T11:51:14;8.35;;;2.40;;
76566;SDS011;65428;53.194;6.132;2023-07-16T11:53:39;8.50;;;2.57;;
76566;SDS011;65428;53.194;6.132;2023-07-16T11:56:05;10.18;;;2.67;;
76566;SDS011;65428;53.194;6.132;2023-07-16T11:58:31;8.77;;;2.40;;
76566;SDS011;65428;53.194;6.132;2023-07-16T12:00:57;10.87;;;2.40;;
76566;SDS011;65428;53.194;6.132;2023-07-16T12:03:22;11.60;;;2.50;;
76566;SDS011;65428;53.194;6.132;2023-07-16T12:05:50;11.48;;;2.67;;
76566;SDS011;65428;53.194;6.132;2023-07-16T12:08:16;9.57;;;2.92;;
76566;SDS011;65428;53.194;6.132;2023-07-16T12:10:41;11.20;;;2.78;;
76566;SDS011;65428;53.194;6.132;2023-07-16T12:13:07;11.20;;;2.83;;
76566;SDS011;65428;53.194;6.132;2023-07-16T12:15:33;9.40;;;3.15;;
76566;SDS011;65428;53.194;6.132;2023-07-16T12:17:59;11.10;;;2.80;;
76566;SDS011;65428;53.194;6.132;2023-07-16T12:20:24;9.77;;;2.93;;
76566;SDS011;65428;53.194;6.132;2023-07-16T12:22:51;10.10;;;2.90;;
76566;SDS011;65428;53.194;6.132;2023-07-16T12:25:16;11.35;;;3.30;;
76566;SDS011;65428;53.194;6.132;2023-07-16T12:27:44;10.90;;;3.10;;
76566;SDS011;65428;53.194;6.132;2023-07-16T12:30:22;9.75;;;2.85;;
76566;SDS011;65428;53.194;6.132;2023-07-16T12:33:03;9.07;;;2.80;;
76566;SDS011;65428;53.194;6.132;2023-07-16T12:39:23;10.88;;;2.70;;
76566;SDS011;65428;53.194;6.132;2023-07-16T12:41:52;10.10;;;3.20;;
76566;SDS011;65428;53.194;6.132;2023-07-16T12:44:17;8.15;;;2.65;;
76566;SDS011;65428;53.194;6.132;2023-07-16T12:46:46;13.18;;;3.30;;
76566;SDS011;65428;53.194;6.132;2023-07-16T12:49:20;11.98;;;3.22;;
76566;SDS011;65428;53.194;6.132;2023-07-16T12:52:48;11.43;;;3.03;;
76566;SDS011;65428;53.194;6.132;2023-07-16T12:55:43;8.57;;;1.92;;
76566;SDS011;65428;53.194;6.132;2023-07-16T12:58:29;9.83;;;1.70;;
76566;SDS011;65428;53.194;6.132;2023-07-16T13:04:24;9.48;;;1.70;;
76566;SDS011;65428;53.194;6.132;2023-07-16T13:06:57;7.47;;;1.63;;
76566;SDS011;65428;53.194;6.132;2023-07-16T13:09:28;10.93;;;1.83;;
76566;SDS011;65428;53.194;6.132;2023-07-16T13:12:29;8.77;;;1.23;;
76566;SDS011;65428;53.194;6.132;2023-07-16T13:15:15;6.80;;;1.60;;
76566;SDS011;65428;53.194;6.132;2023-07-16T13:18:09;10.57;;;1.73;;
76566;SDS011;65428;53.194;6.132;2023-07-16T13:20:58;9.27;;;1.73;;
76566;SDS011;65428;53.194;6.132;2023-07-16T13:23:24;11.40;;;1.73;;
76566;SDS011;65428;53.194;6.132;2023-07-16T13:25:55;10.73;;;1.80;;
76566;SDS011;65428;53.194;6.132;2023-07-16T13:28:47;7.30;;;1.35;;
76566;SDS011;65428;53.194;6.132;2023-07-16T13:31:31;8.10;;;1.60;;
76566;SDS011;65428;53.194;6.132;2023-07-16T13:34:19;8.48;;;1.23;;
76566;SDS011;65428;53.194;6.132;2023-07-16T13:36:51;7.65;;;0.98;;
76566;SDS011;65428;53.194;6.132;2023-07-16T13:39:27;11.60;;;1.38;;
76566;SDS011;65428;53.194;6.132;2023-07-16T13:41:53;10.43;;;1.73;;
76566;SDS011;65428;53.194;6.132;2023-07-16T13:44:20;13.00;;;2.47;;
76566;SDS011;65428;53.194;6.132;2023-07-16T13:46:46;13.45;;;2.15;;
76566;SDS011;65428;53.194;6.132;2023-07-16T13:49:12;11.57;;;2.30;;
76566;SDS011;65428;53.194;6.132;2023-07-16T13:54:36;13.48;;;2.13;;
76566;SDS011;65428;53.194;6.132;2023-07-16T13:57:05;10.75;;;2.10;;
76566;SDS011;65428;53.194;6.132;2023-07-16T13:59:39;13.73;;;2.40;;
76566;SDS011;65428;53.194;6.132;2023-07-16T14:02:17;10.02;;;1.70;;
76566;SDS011;65428;53.194;6.132;2023-07-16T14:04:53;8.00;;;1.33;;
76566;SDS011;65428;53.194;6.132;2023-07-16T14:07:19;9.70;;;1.40;;
76566;SDS011;65428;53.194;6.132;2023-07-16T14:09:44;7.40;;;1.15;;
76566;SDS011;65428;53.194;6.132;2023-07-16T14:12:13;8.52;;;1.20;;
76566;SDS011;65428;53.194;6.132;2023-07-16T14:17:48;7.78;;;0.90;;
76566;SDS011;65428;53.194;6.132;2023-07-16T14:20:38;5.22;;;1.05;;
76566;SDS011;65428;53.194;6.132;2023-07-16T14:23:07;8.70;;;1.23;;
76566;SDS011;65428;53.194;6.132;2023-07-16T14:25:35;6.50;;;1.13;;
76566;SDS011;65428;53.194;6.132;2023-07-16T14:28:01;6.80;;;1.00;;
76566;SDS011;65428;53.194;6.132;2023-07-16T14:30:27;4.97;;;0.87;;
76566;SDS011;65428;53.194;6.132;2023-07-16T14:32:52;8.10;;;1.20;;
76566;SDS011;65428;53.194;6.132;2023-07-16T14:35:18;7.00;;;1.03;;
76566;SDS011;65428;53.194;6.132;2023-07-16T14:37:46;7.88;;;1.10;;
76566;SDS011;65428;53.194;6.132;2023-07-16T14:40:12;6.10;;;0.90;;
76566;SDS011;65428;53.194;6.132;2023-07-16T14:42:37;7.80;;;1.17;;
76566;SDS011;65428;53.194;6.132;2023-07-16T14:45:03;6.10;;;0.90;;
76566;SDS011;65428;53.194;6.132;2023-07-16T14:47:30;7.72;;;1.08;;
76566;SDS011;65428;53.194;6.132;2023-07-16T14:49:56;7.63;;;0.90;;
76566;SDS011;65428;53.194;6.132;2023-07-16T14:52:22;6.72;;;0.98;;
76566;SDS011;65428;53.194;6.132;2023-07-16T14:54:47;9.97;;;1.40;;
76566;SDS011;65428;53.194;6.132;2023-07-16T14:57:13;6.50;;;0.90;;
76566;SDS011;65428;53.194;6.132;2023-07-16T14:59:38;8.43;;;1.30;;
76566;SDS011;65428;53.194;6.132;2023-07-16T15:02:05;7.72;;;1.60;;
76566;SDS011;65428;53.194;6.132;2023-07-16T15:04:32;9.05;;;1.35;;
76566;SDS011;65428;53.194;6.132;2023-07-16T15:07:01;8.18;;;1.20;;
76566;SDS011;65428;53.194;6.132;2023-07-16T15:09:30;6.53;;;0.80;;
76566;SDS011;65428;53.194;6.132;2023-07-16T15:11:56;8.10;;;1.10;;
76566;SDS011;65428;53.194;6.132;2023-07-16T15:14:21;7.85;;;1.20;;